createdAt,value
2018-08-10T00:03:41.093Z,17.60
2018-08-10T00:08:34.509Z,17.30
2018-08-10T00:13:27.864Z,17.10
2018-08-10T00:18:21.239Z,17.20
2018-08-10T00:23:14.662Z,17.20
2018-08-10T00:28:08.120Z,17.30
2018-08-10T00:33:01.540Z,17.20
2018-08-10T00:37:54.927Z,17.10
2018-08-10T00:42:48.418Z,17.10
2018-08-10T00:47:42.455Z,16.90
2018-08-10T00:52:35.800Z,16.80
2018-08-10T00:57:29.248Z,16.70
2018-08-10T01:02:22.702Z,16.60
2018-08-10T01:07:16.093Z,16.60
2018-08-10T01:12:09.480Z,16.70
2018-08-10T01:17:02.884Z,16.70
2018-08-10T01:21:56.328Z,16.80
2018-08-10T01:26:49.707Z,16.80
2018-08-10T01:31:43.103Z,16.90
2018-08-10T01:36:36.471Z,16.70
2018-08-10T01:41:29.853Z,16.50
2018-08-10T01:46:23.262Z,16.30
2018-08-10T01:51:16.692Z,16.20
2018-08-10T01:56:10.067Z,16.10
2018-08-10T02:01:03.450Z,15.90
2018-08-10T02:05:56.832Z,15.80
2018-08-10T02:10:50.223Z,15.80
2018-08-10T02:15:43.631Z,15.70
2018-08-10T02:20:37.048Z,15.50
2018-08-10T02:25:30.441Z,15.50
2018-08-10T02:30:23.804Z,15.40
2018-08-10T02:35:17.251Z,15.40
2018-08-10T02:40:16.748Z,15.40
2018-08-10T02:45:10.253Z,15.30
2018-08-10T02:50:03.946Z,15.20
2018-08-10T02:54:57.385Z,15.20
2018-08-10T02:59:50.768Z,15.10
2018-08-10T03:04:44.278Z,15.10
2018-08-10T03:09:37.735Z,15.10
2018-08-10T03:14:31.152Z,15.10
2018-08-10T03:19:24.541Z,15.10
2018-08-10T03:24:17.983Z,15.10
2018-08-10T03:29:11.306Z,15.00
2018-08-10T03:34:04.762Z,15.10
2018-08-10T03:38:58.158Z,15.00
2018-08-10T03:43:51.580Z,14.90
2018-08-10T03:48:44.933Z,14.90
2018-08-10T03:53:38.337Z,14.80
2018-08-10T03:58:31.768Z,14.70
2018-08-10T04:03:25.190Z,14.60
2018-08-10T04:08:18.572Z,14.60
2018-08-10T04:13:11.933Z,14.50
2018-08-10T04:18:05.396Z,14.50
2018-08-10T04:22:58.752Z,14.40
2018-08-10T04:27:52.191Z,14.50
2018-08-10T04:32:45.582Z,14.60
2018-08-10T04:37:38.965Z,14.60
2018-08-10T04:42:32.360Z,14.70
2018-08-10T04:47:25.703Z,14.80
2018-08-10T04:52:19.111Z,15.00
2018-08-10T04:57:12.485Z,15.00
2018-08-10T05:02:06.859Z,15.20
2018-08-10T05:07:00.264Z,15.30
2018-08-10T05:11:53.616Z,15.40
2018-08-10T05:16:47.076Z,15.60
2018-08-10T05:21:40.771Z,15.70
2018-08-10T05:26:34.124Z,15.90
2018-08-10T05:31:27.496Z,16.10
2018-08-10T05:36:20.850Z,17.10
2018-08-10T05:41:14.251Z,18.00
2018-08-10T05:46:07.813Z,19.50
2018-08-10T05:51:01.248Z,21.20
2018-08-10T05:55:54.628Z,22.00
2018-08-10T06:00:48.022Z,22.70
2018-08-10T06:05:41.386Z,23.70
2018-08-10T06:10:34.779Z,23.80
2018-08-10T06:15:28.252Z,24.70
2018-08-10T06:20:50.872Z,25.80
2018-08-10T06:25:44.494Z,26.30
2018-08-10T06:30:37.962Z,26.90
2018-08-10T06:35:31.307Z,27.60
2018-08-10T06:40:24.654Z,28.60
2018-08-10T06:45:18.068Z,29.20
2018-08-10T06:50:11.469Z,29.30
2018-08-10T06:55:05.196Z,29.80
2018-08-10T06:59:58.537Z,30.20
2018-08-10T07:04:51.952Z,30.20
2018-08-10T07:09:45.317Z,29.40
2018-08-10T07:14:38.837Z,30.20
2018-08-10T07:19:32.481Z,30.40
2018-08-10T07:24:29.844Z,29.70
2018-08-10T07:40:41.656Z,29.10
2018-08-10T07:45:35.031Z,29.90
2018-08-10T07:50:28.375Z,30.70
2018-08-10T07:55:21.763Z,31.80
2018-08-10T08:00:15.274Z,32.50
2018-08-10T08:05:09.066Z,32.90
2018-08-10T08:10:02.821Z,32.00
2018-08-10T08:14:57.298Z,31.50
2018-08-10T08:19:50.785Z,30.70
2018-08-10T08:24:44.166Z,28.80
2018-08-10T08:29:37.617Z,30.50
2018-08-10T08:34:31.781Z,30.60
2018-08-10T08:40:37.160Z,30.70
2018-08-10T08:45:53.830Z,32.40
2018-08-10T08:50:48.636Z,31.50
2018-08-10T08:55:52.741Z,31.30
2018-08-10T09:00:46.261Z,30.40
2018-08-10T09:05:39.628Z,30.60
2018-08-10T09:10:33.053Z,31.40
2018-08-10T09:15:26.461Z,32.30
2018-08-10T09:20:20.957Z,32.80
2018-08-10T09:25:16.814Z,33.50
2018-08-10T09:30:12.896Z,30.80
2018-08-10T09:35:08.054Z,30.70
2018-08-10T09:40:01.472Z,31.30
2018-08-10T09:44:54.954Z,30.60
2018-08-10T09:49:49.328Z,31.10
2018-08-10T09:55:27.359Z,31.00
2018-08-10T10:01:24.986Z,30.90
2018-08-10T10:06:18.467Z,28.70
2018-08-10T10:11:11.833Z,28.50
2018-08-10T10:16:05.573Z,27.50
2018-08-10T10:20:58.953Z,27.80
2018-08-10T10:25:52.398Z,28.40
2018-08-10T10:30:45.818Z,28.00
2018-08-10T10:35:39.180Z,27.30
2018-08-10T10:40:32.765Z,26.70
2018-08-10T10:45:26.181Z,26.50
2018-08-10T10:50:19.933Z,26.70
2018-08-10T10:55:13.488Z,26.70
2018-08-10T11:00:11.067Z,26.50
2018-08-10T11:05:06.149Z,26.70
2018-08-10T11:09:59.667Z,26.20
2018-08-10T11:14:54.535Z,25.90
2018-08-10T11:19:50.435Z,26.30
2018-08-10T11:24:44.360Z,26.50
2018-08-10T11:29:37.755Z,27.40
2018-08-10T11:34:32.093Z,27.50
2018-08-10T11:39:27.441Z,26.90
2018-08-10T11:44:22.943Z,26.80
2018-08-10T11:49:16.418Z,27.40
2018-08-10T11:54:09.817Z,27.80
2018-08-10T11:59:03.243Z,27.50
2018-08-10T12:03:57.145Z,27.10
2018-08-10T12:08:50.533Z,27.40
2018-08-10T12:13:43.956Z,27.50
2018-08-10T12:18:37.765Z,26.70
2018-08-10T12:23:32.105Z,26.70
2018-08-10T12:28:25.565Z,26.70
2018-08-10T12:33:18.882Z,27.10
2018-08-10T12:38:12.319Z,27.10
2018-08-10T12:43:06.463Z,26.70
2018-08-10T12:47:59.900Z,26.70
2018-08-10T12:52:57.112Z,27.20
2018-08-10T12:57:50.482Z,26.90
2018-08-10T13:02:45.884Z,27.10
2018-08-10T13:07:39.242Z,24.20
2018-08-10T13:12:32.608Z,26.50
2018-08-10T13:17:25.985Z,26.80
2018-08-10T13:22:19.445Z,27.20
2018-08-10T13:27:12.805Z,27.70
2018-08-10T13:32:06.226Z,27.40
2018-08-10T13:36:59.648Z,27.50
2018-08-10T13:41:53.080Z,26.60
2018-08-10T13:46:46.501Z,26.70
2018-08-10T13:51:40.806Z,26.70
2018-08-10T13:56:34.544Z,27.10
2018-08-10T14:01:30.139Z,27.80
2018-08-10T14:06:23.611Z,27.90
2018-08-10T14:11:17.036Z,27.70
2018-08-10T14:16:10.530Z,27.70
2018-08-10T14:21:04.041Z,25.30
2018-08-10T14:25:57.511Z,27.10
2018-08-10T14:30:50.897Z,26.40
2018-08-10T14:35:44.782Z,26.20
2018-08-10T14:40:38.181Z,26.80
2018-08-10T14:45:31.610Z,27.50
2018-08-10T14:50:25.060Z,27.80
2018-08-10T14:55:18.555Z,27.30
2018-08-10T15:00:18.808Z,26.50
2018-08-10T15:05:12.177Z,25.80
2018-08-10T15:10:08.062Z,25.60
2018-08-10T15:15:01.513Z,25.50
2018-08-10T15:19:55.719Z,25.30
2018-08-10T15:24:49.150Z,25.00
2018-08-10T15:29:43.669Z,25.40
2018-08-10T15:34:37.172Z,25.80
2018-08-10T15:39:30.556Z,26.10
2018-08-10T15:44:23.988Z,26.90
2018-08-10T15:49:17.552Z,26.30
2018-08-10T15:54:10.927Z,26.10
2018-08-10T15:59:05.230Z,25.90
2018-08-10T16:03:58.698Z,25.40
2018-08-10T16:08:52.320Z,25.30
2018-08-10T16:13:46.799Z,25.20
2018-08-10T16:18:40.211Z,25.40
2018-08-10T16:23:33.678Z,25.60
2018-08-10T16:28:27.798Z,25.70
2018-08-10T16:33:21.219Z,25.30
2018-08-10T16:38:14.707Z,25.20
2018-08-10T16:43:08.170Z,25.40
2018-08-10T16:48:01.553Z,25.30
2018-08-10T16:52:54.921Z,25.20
2018-08-10T16:57:49.033Z,25.30
2018-08-10T17:02:42.963Z,25.20
2018-08-10T17:07:36.423Z,25.30
2018-08-10T17:12:29.800Z,25.00
2018-08-10T17:17:23.883Z,24.70
2018-08-10T17:22:17.338Z,24.40
2018-08-10T17:27:10.820Z,24.30
2018-08-10T17:32:04.580Z,24.10
2018-08-10T17:36:58.066Z,24.10
2018-08-10T17:41:51.443Z,24.00
2018-08-10T17:46:44.865Z,23.70
2018-08-10T17:51:38.264Z,23.40
2018-08-10T17:56:31.654Z,23.20
2018-08-10T18:01:24.998Z,23.00
2018-08-10T18:06:18.754Z,22.90
2018-08-10T18:11:12.177Z,22.60
2018-08-10T18:16:05.668Z,22.40
2018-08-10T18:20:59.544Z,22.30
2018-08-10T18:25:53.006Z,22.20
2018-08-10T18:30:46.366Z,22.00
2018-08-10T18:35:39.862Z,21.90
2018-08-10T18:40:33.308Z,21.80
2018-08-10T18:45:28.506Z,21.70
2018-08-10T18:50:22.976Z,21.60
2018-08-10T18:55:27.747Z,21.50
2018-08-10T19:00:31.362Z,21.30
2018-08-10T19:05:34.204Z,21.30
2018-08-10T19:10:36.592Z,21.10
2018-08-10T19:15:38.040Z,21.00
2018-08-10T19:20:31.809Z,20.90
2018-08-10T19:25:34.205Z,20.80
2018-08-10T19:30:33.411Z,20.70
2018-08-10T19:35:27.116Z,20.60
2018-08-10T19:40:28.216Z,20.40
2018-08-10T19:45:26.540Z,20.50
2018-08-10T19:50:29.851Z,20.40
2018-08-10T19:55:23.562Z,20.30
2018-08-10T20:00:25.470Z,20.20
2018-08-10T20:05:24.445Z,20.20
2018-08-10T20:10:26.120Z,20.20
2018-08-10T20:15:26.759Z,20.10
2018-08-10T20:20:26.579Z,20.00
2018-08-10T20:25:27.485Z,19.90
2018-08-10T20:30:26.993Z,19.90
2018-08-10T20:35:28.228Z,19.80
2018-08-10T20:40:27.719Z,19.70
2018-08-10T20:45:27.558Z,19.80
2018-08-10T20:50:27.005Z,19.70
2018-08-10T20:55:27.683Z,19.60
2018-08-10T21:00:27.537Z,19.50
2018-08-10T21:05:30.230Z,19.40
2018-08-10T21:10:30.916Z,19.30
2018-08-10T21:15:31.939Z,19.20
2018-08-10T21:20:34.258Z,19.20
2018-08-10T21:25:34.277Z,19.10
2018-08-10T21:30:30.911Z,19.00
2018-08-10T21:35:31.324Z,19.00
2018-08-10T21:40:33.877Z,18.90
2018-08-10T21:45:27.930Z,18.80
2018-08-10T21:50:21.272Z,18.70
2018-08-10T21:55:14.641Z,18.60
2018-08-10T22:00:21.781Z,18.50
2018-08-10T22:05:15.138Z,18.50
2018-08-10T22:10:08.530Z,18.50
2018-08-10T22:15:07.532Z,18.40
2018-08-10T22:20:00.920Z,18.40
2018-08-10T22:24:54.884Z,18.20
2018-08-10T22:29:48.208Z,18.20
2018-08-10T22:34:41.754Z,18.00
2018-08-10T22:39:35.130Z,18.00
2018-08-10T22:44:28.496Z,17.90
2018-08-10T22:49:21.878Z,17.90
2018-08-10T22:54:15.243Z,17.90
2018-08-10T22:59:08.683Z,17.80
2018-08-10T23:04:02.082Z,17.80
2018-08-10T23:08:55.557Z,17.80
2018-08-10T23:13:48.932Z,17.70
2018-08-10T23:18:42.271Z,16.20
2018-08-10T23:23:35.742Z,17.60
2018-08-10T23:28:29.154Z,17.60
2018-08-10T23:33:22.512Z,17.60
2018-08-10T23:38:15.910Z,17.60
2018-08-10T23:43:09.419Z,17.70
2018-08-10T23:48:03.465Z,17.80
2018-08-10T23:52:57.967Z,17.90
2018-08-10T23:57:51.518Z,17.80
